Wood Mountain, Canada
Current Conditions -  °F | °C
As of 1:53 AM on Sunday 26 Oct 2014 (Local Time) from KGGW Reporting Station
Clear Clear  
Wind Chill: 40°   Ceiling: Unl
Heat Index: 47°   Visibility: 10mi
Dew Point: 32°   Wind: 16mph
Humidity: 56%   Direction: 100°E
Pressure: 29.53"   Gusts: NA
Location:  49.37°N, 106.38°W
Report Text: KGGW 260753Z AUTO 10014KT 10SM CLR 08/00 A2953 RMK AO2 SLP000 T00830000 $
Loading
Personal Weather Stations






























Interactive Weather Map
Tropical Storm Tracking
New forecast layout! Learn more

10-Day Weather Forecast

Advertisements
Track Severe Weather on mobile